createdAt,value
2019-01-15T00:02:25.201Z,39.87
2019-01-15T00:04:56.400Z,40.05
2019-01-15T00:07:26.171Z,40.28
2019-01-15T00:09:55.920Z,40.37
2019-01-15T00:12:26.756Z,40.58
2019-01-15T00:14:56.625Z,40.63
2019-01-15T00:17:26.382Z,41.04
2019-01-15T00:19:56.217Z,41.51
2019-01-15T00:22:26.206Z,41.39
2019-01-15T00:24:55.968Z,41.59
2019-01-15T00:27:25.779Z,41.55
2019-01-15T00:29:55.535Z,41.93
2019-01-15T00:32:25.450Z,41.43
2019-01-15T00:34:56.348Z,41.94
2019-01-15T00:37:26.140Z,42.22
2019-01-15T00:39:55.867Z,42.30
2019-01-15T00:42:25.764Z,42.38
2019-01-15T00:44:56.552Z,42.21
2019-01-15T00:47:26.334Z,42.49
2019-01-15T00:49:56.109Z,42.71
2019-01-15T00:52:26.108Z,43.00
2019-01-15T00:54:55.914Z,42.88
2019-01-15T00:57:25.793Z,42.70
2019-01-15T00:59:55.563Z,42.56
2019-01-15T01:02:31.950Z,42.94
2019-01-15T01:05:02.415Z,42.89
2019-01-15T01:11:03.045Z,42.38
2019-01-15T01:17:27.312Z,42.73
2019-01-15T01:19:57.350Z,42.80
2019-01-15T01:22:27.110Z,42.74
2019-01-15T01:24:56.902Z,42.94
2019-01-15T01:27:26.716Z,42.82
2019-01-15T01:29:56.488Z,42.72
2019-01-15T01:32:26.279Z,43.30
2019-01-15T01:34:58.628Z,43.20
2019-01-15T01:37:28.389Z,43.25
2019-01-15T01:40:01.420Z,43.55
2019-01-15T01:42:31.738Z,43.33
2019-01-15T01:45:01.563Z,43.99
2019-01-15T01:47:31.362Z,43.54
2019-01-15T01:50:01.298Z,42.91
2019-01-15T01:52:31.035Z,43.30
2019-01-15T01:55:00.854Z,43.08
2019-01-15T01:57:30.833Z,43.04
2019-01-15T02:00:03.053Z,43.16
2019-01-15T02:02:32.995Z,43.45
2019-01-15T02:05:03.053Z,43.32
2019-01-15T02:07:32.867Z,42.79
2019-01-15T02:10:02.899Z,42.81
2019-01-15T02:12:36.779Z,42.45
2019-01-15T02:15:05.783Z,41.99
2019-01-15T02:17:35.654Z,41.84
2019-01-15T02:20:08.326Z,41.81
2019-01-15T02:22:38.086Z,41.64
2019-01-15T02:25:09.399Z,41.66
2019-01-15T02:27:40.705Z,42.11
2019-01-15T02:30:13.496Z,42.07
2019-01-15T02:32:44.310Z,42.09
2019-01-15T02:35:14.127Z,42.24
2019-01-15T02:37:44.100Z,42.40
2019-01-15T02:40:15.493Z,42.62
2019-01-15T02:42:46.834Z,42.42
2019-01-15T02:45:19.912Z,42.64
2019-01-15T02:47:49.731Z,42.50
2019-01-15T02:50:20.834Z,42.30
2019-01-15T02:52:50.632Z,42.16
2019-01-15T02:55:20.834Z,42.45
2019-01-15T02:57:50.683Z,42.68
2019-01-15T03:00:24.688Z,42.62
2019-01-15T03:02:56.244Z,42.66
2019-01-15T03:05:27.643Z,42.80
2019-01-15T03:07:57.404Z,42.91
2019-01-15T03:10:27.175Z,43.09
2019-01-15T03:12:57.122Z,43.14
2019-01-15T03:15:26.894Z,43.17
2019-01-15T03:17:56.686Z,43.37
2019-01-15T03:20:26.532Z,43.58
2019-01-15T03:22:57.815Z,43.91
2019-01-15T03:25:27.690Z,44.16
2019-01-15T03:27:57.455Z,44.48
2019-01-15T03:30:27.392Z,45.02
2019-01-15T03:32:57.057Z,45.33
2019-01-15T03:35:26.821Z,46.01
2019-01-15T03:37:56.687Z,46.11
2019-01-15T03:40:26.712Z,46.29
2019-01-15T03:43:03.188Z,46.03
2019-01-15T03:45:29.014Z,46.01
2019-01-15T03:47:58.773Z,45.87
2019-01-15T03:50:28.556Z,45.90
2019-01-15T03:53:00.409Z,45.96
2019-01-15T03:55:30.149Z,46.40
2019-01-15T03:57:59.971Z,46.84
2019-01-15T04:00:29.772Z,47.12
2019-01-15T04:03:02.985Z,47.60
2019-01-15T04:05:33.779Z,47.88
2019-01-15T04:08:03.770Z,48.51
2019-01-15T04:10:33.547Z,48.84
2019-01-15T04:13:11.001Z,48.82
2019-01-15T04:15:35.061Z,48.40
2019-01-15T04:18:07.856Z,48.66
2019-01-15T04:20:38.723Z,49.27
2019-01-15T04:23:08.618Z,49.00
2019-01-15T04:25:38.403Z,49.19
2019-01-15T04:28:08.223Z,48.74
2019-01-15T04:30:38.180Z,48.86
2019-01-15T04:33:07.922Z,48.86
2019-01-15T04:35:37.748Z,48.82
2019-01-15T04:38:07.547Z,49.24
2019-01-15T04:40:40.699Z,49.44
2019-01-15T04:43:10.568Z,49.04
2019-01-15T04:45:40.371Z,48.93
2019-01-15T04:48:10.089Z,48.76
2019-01-15T04:50:39.935Z,49.26
2019-01-15T04:53:09.690Z,49.83
2019-01-15T04:55:39.487Z,49.93
2019-01-15T04:58:09.371Z,50.04
2019-01-15T05:00:39.146Z,50.05
2019-01-15T05:03:13.394Z,49.65
2019-01-15T05:05:43.391Z,49.44
2019-01-15T05:08:13.227Z,49.50
2019-01-15T05:10:44.654Z,49.62
2019-01-15T05:13:14.455Z,50.03
2019-01-15T05:15:44.209Z,49.69
2019-01-15T05:18:14.003Z,50.19
2019-01-15T05:20:43.803Z,50.64
2019-01-15T05:23:13.711Z,50.80
2019-01-15T05:25:43.586Z,50.64
2019-01-15T05:28:13.352Z,51.07
2019-01-15T05:30:43.499Z,51.71
2019-01-15T05:33:13.430Z,52.18
2019-01-15T05:35:43.217Z,53.05
2019-01-15T05:38:13.009Z,53.61
2019-01-15T05:40:42.855Z,53.78
2019-01-15T05:43:12.600Z,54.14
2019-01-15T05:45:42.747Z,54.59
2019-01-15T05:48:13.904Z,54.62
2019-01-15T05:50:45.440Z,54.10
2019-01-15T05:53:15.326Z,54.29
2019-01-15T05:55:45.127Z,54.91
2019-01-15T05:58:14.818Z,54.81
2019-01-15T06:00:44.704Z,54.23
2019-01-15T06:03:19.383Z,53.98
2019-01-15T06:05:51.058Z,53.66
2019-01-15T06:08:20.858Z,52.85
2019-01-15T06:10:50.686Z,51.56
2019-01-15T06:13:20.575Z,51.14
2019-01-15T06:15:50.453Z,51.02
2019-01-15T06:18:20.198Z,51.39
2019-01-15T06:20:50.011Z,51.17
2019-01-15T06:23:19.803Z,50.95
2019-01-15T06:25:49.609Z,51.57
2019-01-15T06:28:19.746Z,52.30
2019-01-15T06:30:49.610Z,53.15
2019-01-15T06:33:21.397Z,53.20
2019-01-15T06:35:51.179Z,53.32
2019-01-15T06:38:24.001Z,53.31
2019-01-15T06:40:54.309Z,52.99
2019-01-15T06:43:24.041Z,53.09
2019-01-15T06:45:54.320Z,53.71
2019-01-15T06:48:24.201Z,53.08
2019-01-15T06:50:53.962Z,53.26
2019-01-15T06:53:24.091Z,53.39
2019-01-15T06:55:55.582Z,53.62
2019-01-15T06:58:26.741Z,53.27
2019-01-15T07:00:56.519Z,52.96
2019-01-15T07:03:31.081Z,52.31
2019-01-15T07:06:00.941Z,51.91
2019-01-15T07:08:30.722Z,51.77
2019-01-15T07:11:00.638Z,50.99
2019-01-15T07:13:30.993Z,50.61
2019-01-15T07:16:02.598Z,49.96
2019-01-15T07:18:32.359Z,49.48
2019-01-15T07:21:02.173Z,48.94
2019-01-15T07:23:32.052Z,48.08
2019-01-15T07:26:01.912Z,47.36
2019-01-15T07:28:31.759Z,46.32
2019-01-15T07:31:01.893Z,45.83
2019-01-15T07:33:31.624Z,45.91
2019-01-15T07:36:01.384Z,46.06
2019-01-15T07:38:31.259Z,45.02
2019-01-15T07:41:01.074Z,44.41
2019-01-15T07:43:32.721Z,43.35
2019-01-15T07:46:02.696Z,42.80
2019-01-15T07:48:35.113Z,43.06
2019-01-15T07:51:04.849Z,41.49
2019-01-15T07:53:34.723Z,40.45
2019-01-15T07:56:04.895Z,39.64
2019-01-15T07:58:34.771Z,38.12
2019-01-15T08:01:05.166Z,37.18
2019-01-15T08:03:39.247Z,37.57
2019-01-15T08:06:10.008Z,38.11
2019-01-15T08:08:39.815Z,36.29
2019-01-15T08:11:09.647Z,36.82
2019-01-15T08:13:39.522Z,36.84
2019-01-15T08:16:09.298Z,36.40
2019-01-15T08:18:39.077Z,35.91
2019-01-15T08:21:08.961Z,34.36
2019-01-15T08:23:38.708Z,33.35
2019-01-15T08:26:08.502Z,32.80
2019-01-15T08:28:38.381Z,32.43
2019-01-15T08:31:08.140Z,32.34
2019-01-15T08:33:38.000Z,31.73
2019-01-15T08:36:08.315Z,32.30
2019-01-15T08:38:38.996Z,34.29
2019-01-15T08:41:08.785Z,34.08
2019-01-15T08:43:38.910Z,35.52
2019-01-15T08:46:08.682Z,35.79
2019-01-15T08:48:40.136Z,35.64
2019-01-15T08:51:10.370Z,36.33
2019-01-15T08:53:40.559Z,36.26
2019-01-15T08:56:13.178Z,37.01
2019-01-15T08:58:43.512Z,36.16
2019-01-15T09:01:13.558Z,35.68
2019-01-15T09:03:44.546Z,34.33
2019-01-15T09:06:15.559Z,33.50
2019-01-15T09:08:45.430Z,33.54
2019-01-15T09:11:15.202Z,33.50
2019-01-15T09:13:44.998Z,33.08
2019-01-15T09:16:14.813Z,33.05
2019-01-15T09:18:46.425Z,33.33
2019-01-15T09:21:16.307Z,32.54
2019-01-15T09:23:46.143Z,33.50
2019-01-15T09:26:16.773Z,32.71
2019-01-15T09:28:47.841Z,30.94
2019-01-15T09:31:18.659Z,30.64
2019-01-15T09:33:48.495Z,30.05
2019-01-15T09:36:19.197Z,29.17
2019-01-15T09:38:49.164Z,30.02
2019-01-15T09:41:19.069Z,30.61
2019-01-15T09:43:48.853Z,29.49
2019-01-15T09:46:18.754Z,28.99
2019-01-15T09:48:48.608Z,29.49
2019-01-15T09:51:19.514Z,28.50
2019-01-15T09:53:49.622Z,28.27
2019-01-15T09:56:19.397Z,28.51
2019-01-15T09:58:49.208Z,29.63
2019-01-15T10:01:19.698Z,28.89
2019-01-15T10:03:49.481Z,28.46
2019-01-15T10:06:23.326Z,28.18
2019-01-15T10:08:54.250Z,27.76
2019-01-15T10:11:24.364Z,26.00
2019-01-15T10:13:54.470Z,26.01
2019-01-15T10:16:24.305Z,25.47
2019-01-15T10:18:54.202Z,25.75
2019-01-15T10:21:25.283Z,26.03
2019-01-15T10:23:56.864Z,25.19
2019-01-15T10:26:26.666Z,25.24
2019-01-15T10:28:58.107Z,24.68
2019-01-15T10:31:41.157Z,23.99
2019-01-15T10:34:12.884Z,24.51
2019-01-15T10:36:42.631Z,24.08
2019-01-15T10:39:13.436Z,23.08
2019-01-15T10:41:48.165Z,23.60
2019-01-15T10:44:19.988Z,23.81
2019-01-15T10:46:53.982Z,23.79
2019-01-15T10:49:24.953Z,22.45
2019-01-15T10:51:59.905Z,22.93
2019-01-15T10:54:31.226Z,23.53
2019-01-15T10:57:05.500Z,23.96
2019-01-15T10:59:36.045Z,23.30
2019-01-15T11:02:05.995Z,24.30
2019-01-15T11:04:39.881Z,26.20
2019-01-15T11:07:09.915Z,26.01
2019-01-15T11:09:39.665Z,26.04
2019-01-15T11:12:14.696Z,24.38
2019-01-15T11:14:44.781Z,23.47
2019-01-15T11:17:19.224Z,23.18
2019-01-15T11:19:52.145Z,23.03
2019-01-15T11:22:22.679Z,23.76
2019-01-15T11:24:53.216Z,21.77
2019-01-15T11:27:25.218Z,23.90
2019-01-15T11:29:55.726Z,25.38
2019-01-15T11:32:27.904Z,25.00
2019-01-15T11:34:57.978Z,24.06
2019-01-15T11:37:33.365Z,24.71
2019-01-15T11:40:07.560Z,23.77
2019-01-15T11:42:37.639Z,24.11
2019-01-15T11:45:21.422Z,23.26
2019-01-15T11:47:51.997Z,22.99
2019-01-15T11:50:24.510Z,22.32
2019-01-15T11:52:56.397Z,22.51
2019-01-15T11:55:28.204Z,22.93
2019-01-15T11:57:59.244Z,23.61
2019-01-15T12:00:38.360Z,25.43
2019-01-15T12:03:14.951Z,25.45
2019-01-15T12:06:01.408Z,24.65
2019-01-15T12:08:42.120Z,23.75
2019-01-15T12:11:30.830Z,25.14
2019-01-15T12:14:11.249Z,25.10
2019-01-15T12:16:50.189Z,25.56
2019-01-15T12:19:38.893Z,27.34
2019-01-15T12:22:28.795Z,26.33
2019-01-15T12:25:05.943Z,27.04
2019-01-15T12:27:39.994Z,27.04
2019-01-15T12:30:18.044Z,26.10
2019-01-15T12:32:49.397Z,25.96
2019-01-15T12:35:20.960Z,25.07
2019-01-15T12:37:55.263Z,24.46
2019-01-15T12:40:37.187Z,23.91
2019-01-15T12:43:11.503Z,23.97
2019-01-15T12:45:51.885Z,22.88
2019-01-15T12:48:38.117Z,22.85
2019-01-15T12:51:12.556Z,21.84
2019-01-15T12:54:00.051Z,23.73
2019-01-15T12:56:37.519Z,23.42
2019-01-15T12:59:20.906Z,22.66
2019-01-15T13:01:58.425Z,23.16
2019-01-15T13:04:29.759Z,23.87
2019-01-15T13:07:10.542Z,22.29
2019-01-15T13:09:58.745Z,21.81
2019-01-15T13:12:42.113Z,21.06
2019-01-15T13:15:29.280Z,20.93
2019-01-15T13:18:02.284Z,20.69
2019-01-15T13:20:39.643Z,21.14
2019-01-15T13:23:26.027Z,20.28
2019-01-15T13:26:00.038Z,21.03
2019-01-15T13:28:40.526Z,20.95
2019-01-15T13:31:14.997Z,21.25
2019-01-15T13:33:58.417Z,20.99
2019-01-15T13:36:30.615Z,20.75
2019-01-15T13:39:18.263Z,21.48
2019-01-15T13:41:54.476Z,22.40
2019-01-15T13:44:26.130Z,23.35
2019-01-15T13:47:07.827Z,22.95
2019-01-15T13:49:57.596Z,22.95
2019-01-15T13:52:29.307Z,23.09
2019-01-15T13:55:13.230Z,22.29
2019-01-15T13:57:47.497Z,20.76
2019-01-15T14:00:22.374Z,20.04
2019-01-15T14:02:55.494Z,20.35
2019-01-15T14:05:38.814Z,20.95
2019-01-15T14:08:10.134Z,21.53
2019-01-15T14:10:44.448Z,21.53
2019-01-15T14:13:27.677Z,21.78
2019-01-15T14:16:01.848Z,21.87
2019-01-15T14:18:50.174Z,21.67
2019-01-15T14:21:24.388Z,22.30
2019-01-15T14:23:55.684Z,22.74
2019-01-15T14:26:29.922Z,22.57
2019-01-15T14:29:01.237Z,22.33
2019-01-15T14:31:36.655Z,22.12
2019-01-15T14:34:25.225Z,22.01
2019-01-15T14:37:12.933Z,22.97
2019-01-15T14:39:53.172Z,24.37
2019-01-15T14:42:28.009Z,25.50
2019-01-15T14:45:17.701Z,26.66
2019-01-15T14:47:54.812Z,27.53
2019-01-15T14:50:32.531Z,27.74
2019-01-15T14:53:03.943Z,27.86
2019-01-15T14:55:50.203Z,28.36
2019-01-15T14:58:24.375Z,28.25
2019-01-15T15:01:07.855Z,28.34
2019-01-15T15:03:42.177Z,28.36
2019-01-15T15:06:16.232Z,28.29
2019-01-15T15:08:59.682Z,28.43
2019-01-15T15:11:31.795Z,29.14
2019-01-15T15:14:07.423Z,30.23
2019-01-15T15:16:45.520Z,30.34
2019-01-15T15:19:17.388Z,30.25
2019-01-15T15:22:09.344Z,30.35
2019-01-15T15:24:51.463Z,30.76
2019-01-15T15:27:39.317Z,29.94
2019-01-15T15:30:29.551Z,30.12
2019-01-15T15:33:00.863Z,30.78
2019-01-15T15:35:32.789Z,31.89
2019-01-15T15:38:10.100Z,30.38
2019-01-15T15:40:41.544Z,28.97
2019-01-15T15:43:24.693Z,28.25
2019-01-15T15:46:00.110Z,27.50
2019-01-15T15:48:43.188Z,30.37
2019-01-15T15:51:17.707Z,31.05
2019-01-15T15:53:49.052Z,31.52
2019-01-15T15:56:29.252Z,31.93
2019-01-15T15:59:06.551Z,31.94
2019-01-15T16:01:55.859Z,32.01
2019-01-15T16:04:36.935Z,31.95
2019-01-15T16:07:13.149Z,31.83
2019-01-15T16:09:59.370Z,31.85
2019-01-15T16:12:36.058Z,31.94
2019-01-15T16:15:14.738Z,32.33
2019-01-15T16:17:48.957Z,32.55
2019-01-15T16:20:21.008Z,32.67
2019-01-15T16:23:01.067Z,32.88
2019-01-15T16:25:36.511Z,33.01
2019-01-15T16:28:20.425Z,33.26
2019-01-15T16:30:52.069Z,33.40
2019-01-15T16:33:39.883Z,33.49
2019-01-15T16:36:14.027Z,33.54
2019-01-15T16:38:48.639Z,33.55
2019-01-15T16:41:20.202Z,33.74
2019-01-15T16:43:54.375Z,33.85
2019-01-15T16:46:44.188Z,33.76
2019-01-15T16:49:31.290Z,33.69
2019-01-15T16:52:22.927Z,33.84
2019-01-15T16:55:00.863Z,33.98
2019-01-15T16:57:51.091Z,34.09
2019-01-15T17:00:25.771Z,34.04
2019-01-15T17:03:03.664Z,34.05
2019-01-15T17:05:54.937Z,33.74
2019-01-15T17:08:26.264Z,33.90
2019-01-15T17:10:57.718Z,33.61
2019-01-15T17:13:41.326Z,33.61
2019-01-15T17:16:33.601Z,33.44
2019-01-15T17:19:02.497Z,33.83
2019-01-15T17:21:35.775Z,33.89
2019-01-15T17:24:10.638Z,33.94
2019-01-15T17:26:49.356Z,38.41
2019-01-15T17:29:29.864Z,40.71
2019-01-15T17:32:05.549Z,39.69
2019-01-15T17:34:49.698Z,41.50
2019-01-15T17:37:32.405Z,42.95
2019-01-15T17:40:10.713Z,43.10
2019-01-15T17:42:45.268Z,38.87
2019-01-15T17:45:20.592Z,42.02
2019-01-15T17:47:52.032Z,40.72
2019-01-15T17:50:30.444Z,44.16
2019-01-15T17:53:18.388Z,44.92
2019-01-15T17:55:49.722Z,45.81
2019-01-15T17:58:26.857Z,45.63
2019-01-15T18:01:04.168Z,46.45
2019-01-15T18:03:35.839Z,48.08
2019-01-15T18:06:22.625Z,47.77
2019-01-15T18:08:57.145Z,47.77
2019-01-15T18:11:44.970Z,43.70
2019-01-15T18:14:28.493Z,40.36
2019-01-15T18:17:16.547Z,39.62
2019-01-15T18:19:54.441Z,40.31
2019-01-15T18:22:44.105Z,41.87
2019-01-15T18:25:16.062Z,42.24
2019-01-15T18:27:53.059Z,43.45
2019-01-15T18:30:28.771Z,44.83
2019-01-15T18:33:12.229Z,44.69
2019-01-15T18:35:43.941Z,45.40
2019-01-15T18:38:27.592Z,45.10
2019-01-15T18:41:00.788Z,44.14
2019-01-15T18:43:35.107Z,42.91
2019-01-15T18:46:21.593Z,43.64
2019-01-15T18:49:05.646Z,43.99
2019-01-15T18:51:55.229Z,44.54
2019-01-15T18:54:35.857Z,43.43
2019-01-15T18:57:20.687Z,46.14
2019-01-15T18:59:53.603Z,47.49
2019-01-15T19:02:36.663Z,48.77
2019-01-15T19:05:15.373Z,49.77
2019-01-15T19:07:46.925Z,51.59
2019-01-15T19:10:21.232Z,50.97
2019-01-15T19:13:01.757Z,49.89
2019-01-15T19:15:43.019Z,50.01
2019-01-15T19:18:17.331Z,51.25
2019-01-15T19:20:54.564Z,52.50
2019-01-15T19:23:33.064Z,53.03
2019-01-15T19:26:10.530Z,53.78
2019-01-15T19:28:44.894Z,54.45
2019-01-15T19:31:19.173Z,55.91
2019-01-15T19:33:50.881Z,55.43
2019-01-15T19:36:39.685Z,55.69
2019-01-15T19:39:12.801Z,55.70
2019-01-15T19:42:01.179Z,55.16
2019-01-15T19:44:41.732Z,55.27
2019-01-15T19:47:15.755Z,55.76
2019-01-15T19:49:58.189Z,56.02
2019-01-15T19:52:34.013Z,56.24
2019-01-15T19:55:24.937Z,57.30
2019-01-15T19:57:58.995Z,57.50
2019-01-15T20:00:47.203Z,57.48
2019-01-15T20:03:25.388Z,54.81
2019-01-15T20:06:06.478Z,53.06
2019-01-15T20:08:38.693Z,52.44
2019-01-15T20:11:26.587Z,52.13
2019-01-15T20:14:03.649Z,52.12
2019-01-15T20:16:45.754Z,52.07
2019-01-15T20:19:34.879Z,51.80
2019-01-15T20:22:18.489Z,52.13
2019-01-15T20:24:54.362Z,52.56
2019-01-15T20:27:29.822Z,52.33
2019-01-15T20:30:02.688Z,52.88
2019-01-15T20:32:34.197Z,54.09
2019-01-15T20:35:17.456Z,54.24
2019-01-15T20:38:04.934Z,55.04
2019-01-15T20:40:36.243Z,56.99
2019-01-15T20:43:09.337Z,59.93
2019-01-15T20:45:56.754Z,61.51
2019-01-15T20:48:30.958Z,62.66
2019-01-15T20:51:11.346Z,60.76
2019-01-15T20:53:45.401Z,57.70
2019-01-15T20:56:16.725Z,55.01
2019-01-15T20:58:48.198Z,53.91
2019-01-15T21:01:35.593Z,55.03
2019-01-15T21:04:10.583Z,57.36
2019-01-15T21:06:55.022Z,58.49
2019-01-15T21:09:29.215Z,61.41
2019-01-15T21:12:05.632Z,58.25
2019-01-15T21:14:38.602Z,54.81
2019-01-15T21:17:12.963Z,54.19
2019-01-15T21:19:48.869Z,53.41
2019-01-15T21:22:28.294Z,53.35
2019-01-15T21:25:06.780Z,52.94
2019-01-15T21:27:55.849Z,52.79
2019-01-15T21:30:39.527Z,52.43
2019-01-15T21:33:26.688Z,52.10
2019-01-15T21:35:58.049Z,52.00
2019-01-15T21:38:45.339Z,51.52
2019-01-15T21:41:16.791Z,51.98
2019-01-15T21:43:48.111Z,53.21
2019-01-15T21:46:20.227Z,54.81
2019-01-15T21:49:07.761Z,56.38
2019-01-15T21:51:45.417Z,54.26
2019-01-15T21:54:18.289Z,51.69
2019-01-15T21:56:56.847Z,50.55
2019-01-15T21:59:41.477Z,50.36
2019-01-15T22:02:21.526Z,50.99
2019-01-15T22:04:52.858Z,52.09
2019-01-15T22:07:41.843Z,51.00
2019-01-15T22:10:19.716Z,49.28
2019-01-15T22:12:57.213Z,47.34
2019-01-15T22:15:28.599Z,48.47
2019-01-15T22:18:12.193Z,48.98
2019-01-15T22:20:49.420Z,50.81
2019-01-15T22:23:39.217Z,52.47
2019-01-15T22:26:21.654Z,55.48
2019-01-15T22:29:00.179Z,56.10
2019-01-15T22:31:31.707Z,53.73
2019-01-15T22:34:10.431Z,50.72
2019-01-15T22:36:54.068Z,48.99
2019-01-15T22:39:31.683Z,47.57
2019-01-15T22:42:12.894Z,48.37
2019-01-15T22:44:44.275Z,47.89
2019-01-15T22:47:23.556Z,48.87
2019-01-15T22:50:11.106Z,49.13
2019-01-15T22:52:49.241Z,48.25
2019-01-15T22:55:26.742Z,51.02
2019-01-15T22:58:10.072Z,50.87
2019-01-15T23:01:00.584Z,50.82
2019-01-15T23:03:48.703Z,51.85
2019-01-15T23:06:37.998Z,52.43
2019-01-15T23:09:16.646Z,52.63
2019-01-15T23:12:08.781Z,53.08
2019-01-15T23:14:53.280Z,52.64
2019-01-15T23:17:30.654Z,52.88
2019-01-15T23:20:18.403Z,53.68
2019-01-15T23:23:05.762Z,55.84
2019-01-15T23:25:37.600Z,55.67
2019-01-15T23:28:15.326Z,55.37
2019-01-15T23:30:46.793Z,55.12
2019-01-15T23:33:35.263Z,55.67
2019-01-15T23:36:16.287Z,57.35
2019-01-15T23:38:57.173Z,60.35
2019-01-15T23:41:48.252Z,63.64
2019-01-15T23:44:20.259Z,66.09
2019-01-15T23:46:58.167Z,64.97
2019-01-15T23:49:47.141Z,62.19
2019-01-15T23:52:24.554Z,59.35
2019-01-15T23:55:08.146Z,58.14
2019-01-15T23:57:46.418Z,57.13
